Time;durP1;ratioP1;P1;durP2;ratioP2;P2;SDS_P1;SDS_P2;PMS_P1;PMS_P2;Temp;Humidity;BMP_temperature;BMP_pressure;BME280_temperature;BME280_humidity;BME280_pressure;Samples;Min_cycle;Max_cycle;Signal;HPM_P1;HPM_P2
2024/01/17 00:02:02;;;;;;;2.35;0.20;;;;;;;-12.65;65.22;100021.94;5006700;28;20110;-78
2024/01/17 00:04:31;;;;;;;2.38;0.30;;;;;;;-12.63;65.11;100021.25;5013286;28;20480;-78
2024/01/17 00:06:58;;;;;;;1.92;0.30;;;;;;;-12.59;65.44;100013.09;5010691;28;20081;-78
2024/01/17 00:09:25;;;;;;;2.83;0.22;;;;;;;-12.56;65.30;100017.44;5008977;28;20050;-79
2024/01/17 00:11:52;;;;;;;1.75;0.40;;;;;;;-12.53;65.44;100010.03;5009575;28;20069;-79
2024/01/17 00:14:19;;;;;;;1.10;0.20;;;;;;;-12.50;65.15;100007.69;5007782;28;20050;-79
2024/01/17 00:16:46;;;;;;;0.85;0.20;;;;;;;-12.46;65.48;100001.19;5007780;28;20073;-78
2024/01/17 00:19:13;;;;;;;0.30;0.10;;;;;;;-12.42;65.27;100005.63;5007461;28;20104;-78
2024/01/17 00:21:42;;;;;;;4.05;0.30;;;;;;;-12.38;65.38;99997.47;5005952;28;20092;-78
2024/01/17 00:24:09;;;;;;;1.00;0.20;;;;;;;-12.35;65.25;100002.69;5012043;28;20416;-79
2024/01/17 00:26:36;;;;;;;1.25;0.10;;;;;;;-12.30;65.29;99998.75;5001516;28;20073;-78
2024/01/17 00:29:02;;;;;;;1.48;0.10;;;;;;;-12.28;65.34;99991.28;5013038;28;20088;-78
2024/01/17 00:31:29;;;;;;;3.97;0.13;;;;;;;-12.24;65.46;99980.56;5005702;28;20607;-79
2024/01/17 00:33:56;;;;;;;0.38;0.10;;;;;;;-12.20;65.46;99978.31;5014312;28;20108;-78
2024/01/17 00:36:23;;;;;;;0.30;0.10;;;;;;;-12.16;65.45;99974.28;5011404;28;20045;-79
2024/01/17 00:38:52;;;;;;;0.43;0.10;;;;;;;-12.13;65.51;99972.84;5007112;28;20451;-78
2024/01/17 00:41:19;;;;;;;0.95;0.30;;;;;;;-12.08;65.62;99977.25;5004064;28;20121;-78
2024/01/17 00:43:47;;;;;;;0.52;0.20;;;;;;;-12.05;65.58;99969.84;5006581;28;20660;-78
2024/01/17 00:46:14;;;;;;;0.38;0.08;;;;;;;-12.02;65.53;99968.34;5004269;28;20052;-79
2024/01/17 00:48:41;;;;;;;1.20;0.10;;;;;;;-11.98;65.49;99956.78;5013105;28;20708;-78
2024/01/17 00:51:08;;;;;;;2.35;0.10;;;;;;;-11.95;65.24;99949.38;5012415;28;20133;-79
2024/01/17 00:53:35;;;;;;;0.63;0.10;;;;;;;-11.92;65.44;99955.47;5010143;28;20078;-79
2024/01/17 00:56:04;;;;;;;0.10;0.10;;;;;;;-11.88;65.54;99946.41;5009228;28;20042;-79
2024/01/17 00:58:31;;;;;;;0.63;0.10;;;;;;;-11.85;65.66;99941.50;5007367;28;20046;-68
2024/01/17 01:00:58;;;;;;;3.25;0.10;;;;;;;-11.82;65.79;99941.66;5001713;28;20152;-67
2024/01/17 01:03:25;;;;;;;0.10;0.10;;;;;;;-11.78;65.86;99942.72;4993864;28;20082;-68
2024/01/17 01:05:52;;;;;;;0.40;0.00;;;;;;;-11.76;65.64;99936.94;5001246;28;20069;-67
2024/01/17 01:08:19;;;;;;;0.30;0.10;;;;;;;-11.74;65.91;99930.34;5000273;28;20045;-67
2024/01/17 01:10:46;;;;;;;0.20;0.10;;;;;;;-11.69;65.58;99931.44;5002249;28;20137;-67
2024/01/17 01:13:14;;;;;;;0.30;0.10;;;;;;;-11.67;65.75;99922.31;4996397;28;20129;-68
2024/01/17 01:15:41;;;;;;;0.68;0.10;;;;;;;-11.62;66.06;99925.06;5000647;28;20074;-67
2024/01/17 01:18:08;;;;;;;0.25;0.10;;;;;;;-11.59;65.61;99921.81;4999485;28;20137;-67
2024/01/17 01:20:35;;;;;;;2.25;0.03;;;;;;;-11.55;65.67;99926.25;5002511;28;20452;-68
2024/01/17 01:23:02;;;;;;;0.68;0.10;;;;;;;-11.52;65.63;99913.78;5002710;28;20062;-67
2024/01/17 01:25:29;;;;;;;0.10;0.10;;;;;;;-11.49;66.00;99906.38;5000303;28;20415;-68
2024/01/17 01:27:56;;;;;;;0.00;0.00;;;;;;;-11.47;65.93;99900.63;4994349;28;20173;-67
2024/01/17 01:30:24;;;;;;;1.13;0.10;;;;;;;-11.43;66.09;99901.63;5002878;28;20077;-67
2024/01/17 01:32:51;;;;;;;0.85;0.00;;;;;;;-11.38;65.91;99896.84;4980619;28;20133;-67
2024/01/17 01:35:18;;;;;;;0.77;0.10;;;;;;;-11.36;65.53;99887.66;4983088;28;20069;-68
2024/01/17 01:37:45;;;;;;;0.10;0.10;;;;;;;-11.33;66.17;99887.81;5005164;28;20129;-68
2024/01/17 01:40:13;;;;;;;0.32;0.10;;;;;;;-11.29;65.57;99887.19;4996213;28;20049;-67
2024/01/17 01:42:43;;;;;;;1.80;0.10;;;;;;;-11.25;65.67;99887.38;4999305;28;20050;-67
2024/01/17 01:45:11;;;;;;;0.80;0.10;;;;;;;-11.22;66.20;99881.59;4996561;28;20058;-67
2024/01/17 01:47:40;;;;;;;2.17;0.13;;;;;;;-11.20;66.36;99878.38;4949644;28;20072;-68
2024/01/17 01:50:08;;;;;;;0.10;0.00;;;;;;;-11.14;66.48;99874.41;5002635;28;20136;-67
2024/01/17 01:52:36;;;;;;;0.65;0.10;;;;;;;-11.12;66.16;99870.31;4995276;28;20534;-68
2024/01/17 01:55:05;;;;;;;1.33;0.00;;;;;;;-11.07;66.59;99866.38;5000835;28;20125;-67
2024/01/17 01:57:35;;;;;;;0.77;0.00;;;;;;;-11.03;66.52;99864.03;4999216;28;20089;-68
2024/01/17 02:00:04;;;;;;;0.15;0.10;;;;;;;-10.99;66.03;99865.06;4998612;28;20101;-70
2024/01/17 02:02:32;;;;;;;0.63;0.00;;;;;;;-10.97;65.99;99853.38;4996089;28;20061;-69
2024/01/17 02:05:04;;;;;;;1.73;0.17;;;;;;;-10.92;66.22;99840.97;4994003;28;20126;-70
2024/01/17 02:07:34;;;;;;;0.20;0.10;;;;;;;-10.90;66.28;99830.16;5002652;28;20416;-70
2024/01/17 02:10:02;;;;;;;0.22;0.10;;;;;;;-10.87;66.38;99819.34;4996762;28;20053;-74
2024/01/17 02:12:29;;;;;;;0.35;0.10;;;;;;;-10.83;66.35;99811.94;4999045;28;20041;-74
2024/01/17 02:14:56;;;;;;;0.00;0.00;;;;;;;-10.81;66.76;99810.38;4998858;28;20564;-75
2024/01/17 02:17:23;;;;;;;0.65;0.10;;;;;;;-10.76;66.27;99803.88;4997955;28;20050;-73
2024/01/17 02:19:50;;;;;;;0.60;0.10;;;;;;;-10.74;66.30;99797.22;4996583;28;20137;-73
2024/01/17 02:22:19;;;;;;;0.10;0.00;;;;;;;-10.68;66.94;99796.63;4997385;28;20580;-73
2024/01/17 02:24:47;;;;;;;0.63;0.03;;;;;;;-10.63;67.03;99791.81;4990429;28;20104;-74
2024/01/17 02:27:14;;;;;;;0.20;0.10;;;;;;;-10.59;66.70;99791.13;4993346;28;20125;-73
2024/01/17 02:29:45;;;;;;;0.77;0.10;;;;;;;-10.54;66.88;99784.63;5001623;28;20497;-74
2024/01/17 02:32:12;;;;;;;0.30;0.08;;;;;;;-10.50;67.14;99778.94;4995000;28;20049;-74
2024/01/17 02:34:39;;;;;;;1.33;0.10;;;;;;;-10.44;67.41;99775.81;5003286;28;20077;-74
2024/01/17 02:37:09;;;;;;;1.65;0.10;;;;;;;-10.39;66.92;99770.16;4994775;28;20126;-74
2024/01/17 02:39:36;;;;;;;0.15;0.10;;;;;;;-10.33;67.59;99767.06;4997032;28;20235;-74
2024/01/17 02:42:05;;;;;;;0.20;0.10;;;;;;;-10.27;67.25;99764.78;4995619;28;20137;-74
2024/01/17 02:44:32;;;;;;;0.10;0.10;;;;;;;-10.22;67.67;99762.44;4996640;28;20069;-73
2024/01/17 02:46:59;;;;;;;0.20;0.10;;;;;;;-10.15;68.06;99761.94;4997631;28;20141;-74
2024/01/17 02:49:26;;;;;;;0.25;0.10;;;;;;;-10.10;68.08;99755.41;4999658;28;20078;-74
2024/01/17 02:51:53;;;;;;;1.73;0.03;;;;;;;-10.03;67.38;99749.81;4991818;28;20148;-74
2024/01/17 02:54:19;;;;;;;0.45;0.10;;;;;;;-9.98;67.52;99740.75;4993976;28;20130;-73
2024/01/17 02:56:46;;;;;;;0.70;0.10;;;;;;;-9.91;68.02;99734.28;4997668;28;20050;-74
2024/01/17 02:59:15;;;;;;;0.10;0.10;;;;;;;-9.85;67.85;99725.28;4997244;28;20164;-74
2024/01/17 03:01:43;;;;;;;1.45;0.10;;;;;;;-9.77;68.50;99728.13;4998269;28;20042;-74
2024/01/17 03:04:10;;;;;;;0.10;0.10;;;;;;;-9.70;67.94;99722.53;4994832;28;20053;-74
2024/01/17 03:06:37;;;;;;;1.90;0.05;;;;;;;-9.62;68.05;99716.13;4999205;28;20122;-74
2024/01/17 03:09:05;;;;;;;0.15;0.10;;;;;;;-9.54;68.34;99718.94;5000780;28;20474;-68
2024/01/17 03:11:32;;;;;;;0.55;0.10;;;;;;;-9.49;68.74;99704.81;5001302;28;20073;-68
2024/01/17 03:13:59;;;;;;;0.80;0.00;;;;;;;-9.42;68.36;99704.25;5000586;28;20073;-68
2024/01/17 03:16:27;;;;;;;0.88;0.10;;;;;;;-9.34;68.96;99703.66;4984528;28;20132;-68
2024/01/17 03:18:54;;;;;;;0.20;0.10;;;;;;;-9.28;68.54;99693.75;5001291;28;20128;-73
2024/01/17 03:21:21;;;;;;;0.30;0.10;;;;;;;-9.20;68.81;99694.94;4998884;28;20050;-73
2024/01/17 03:23:48;;;;;;;0.10;0.10;;;;;;;-9.15;68.98;99681.63;4995863;28;20175;-73
2024/01/17 03:26:15;;;;;;;4.50;0.20;;;;;;;-9.07;68.87;99676.88;4997335;28;20104;-74
2024/01/17 03:28:43;;;;;;;1.30;0.17;;;;;;;-9.00;69.71;99672.88;5001801;28;20165;-74
2024/01/17 03:31:10;;;;;;;1.52;0.05;;;;;;;-8.93;69.84;99659.66;4996556;28;20053;-74
2024/01/17 03:33:38;;;;;;;0.95;0.20;;;;;;;-8.86;69.68;99659.06;5000445;28;20547;-74
2024/01/17 03:36:06;;;;;;;2.85;0.20;;;;;;;-8.79;70.54;99655.97;5002379;28;20552;-74
2024/01/17 03:38:33;;;;;;;1.45;0.20;;;;;;;-8.71;70.73;99657.09;5003053;28;20042;-74
2024/01/17 03:41:01;;;;;;;1.55;0.10;;;;;;;-8.63;70.28;99649.75;5001622;28;20482;-72
2024/01/17 03:43:28;;;;;;;1.00;0.28;;;;;;;-8.56;70.53;99639.03;5003844;28;20086;-73
2024/01/17 03:45:57;;;;;;;0.25;0.17;;;;;;;-8.47;71.03;99644.44;5003421;28;20906;-73
2024/01/17 03:48:24;;;;;;;0.73;0.17;;;;;;;-8.38;70.29;99640.50;5004338;28;20080;-75
2024/01/17 03:50:52;;;;;;;0.90;0.15;;;;;;;-8.29;70.95;99634.06;5001815;28;20477;-74
2024/01/17 03:53:19;;;;;;;2.15;0.10;;;;;;;-8.20;70.97;99632.63;5000415;28;20158;-74
2024/01/17 03:55:46;;;;;;;1.90;0.03;;;;;;;-8.09;71.08;99626.25;5003298;28;20050;-74
2024/01/17 03:58:13;;;;;;;1.80;0.10;;;;;;;-7.98;72.01;99619.00;5001383;28;20142;-74
2024/01/17 04:00:40;;;;;;;0.90;0.10;;;;;;;-7.88;71.26;99608.34;5003368;28;20523;-74
2024/01/17 04:03:11;;;;;;;4.85;0.20;;;;;;;-7.77;71.65;99604.47;5003691;28;20129;-74
2024/01/17 04:05:38;;;;;;;2.75;0.22;;;;;;;-7.68;72.14;99602.22;5006244;28;20126;-74
2024/01/17 04:08:06;;;;;;;1.27;0.10;;;;;;;-7.61;72.20;99596.50;4999921;28;20564;-74
2024/01/17 04:10:33;;;;;;;0.20;0.10;;;;;;;-7.50;72.56;99598.53;5002994;28;20042;-74
2024/01/17 04:13:00;;;;;;;0.20;0.10;;;;;;;-7.41;72.63;99598.81;4999117;28;20497;-74
2024/01/17 04:15:28;;;;;;;3.22;0.10;;;;;;;-7.33;73.00;99594.81;5002712;28;20412;-74
2024/01/17 04:17:55;;;;;;;4.65;0.50;;;;;;;-7.25;72.88;99578.13;5003495;28;20575;-74
2024/01/17 04:20:22;;;;;;;0.70;0.20;;;;;;;-7.16;72.81;99580.94;5005859;28;20146;-75
2024/01/17 04:22:49;;;;;;;2.47;0.13;;;;;;;-7.08;72.93;99570.13;4999628;28;20077;-75
2024/01/17 04:25:17;;;;;;;3.53;0.20;;;;;;;-6.96;73.60;99575.56;5000184;28;20066;-75
2024/01/17 04:27:44;;;;;;;3.15;0.20;;;;;;;-6.88;73.76;99564.75;5004442;28;20078;-74
2024/01/17 04:30:13;;;;;;;1.58;0.20;;;;;;;-6.79;74.26;99564.16;5005884;28;20077;-81
2024/01/17 04:32:41;;;;;;;2.10;0.10;;;;;;;-6.69;74.56;99555.97;5003410;28;20056;-80
2024/01/17 04:35:10;;;;;;;3.35;0.10;;;;;;;-6.61;74.16;99555.28;5005898;28;20050;-81
2024/01/17 04:37:39;;;;;;;3.08;0.40;;;;;;;-6.52;74.27;99545.34;5003490;28;20041;-81
2024/01/17 04:40:07;;;;;;;0.55;0.43;;;;;;;-6.45;74.86;99542.16;5005163;28;20132;-81
2024/01/17 04:42:36;;;;;;;1.77;0.10;;;;;;;-6.37;74.35;99540.66;5005027;28;20104;-81
2024/01/17 04:45:03;;;;;;;2.05;0.20;;;;;;;-6.29;75.06;99541.72;5005553;28;20137;-81
2024/01/17 04:47:30;;;;;;;2.20;0.10;;;;;;;-6.21;75.09;99532.59;5000989;28;20081;-81
2024/01/17 04:49:57;;;;;;;3.40;0.00;;;;;;;-6.12;74.59;99531.97;5003640;28;20078;-81
2024/01/17 04:52:24;;;;;;;1.75;0.20;;;;;;;-6.04;75.65;99529.59;5003196;28;20050;-81
2024/01/17 04:54:51;;;;;;;0.50;0.20;;;;;;;-5.95;75.29;99518.75;5004972;28;20081;-81
2024/01/17 04:57:18;;;;;;;1.90;0.20;;;;;;;-5.87;75.08;99517.25;5002665;28;20560;-81
2024/01/17 04:59:46;;;;;;;2.88;0.82;;;;;;;-5.81;75.18;99509.75;5002060;28;20606;-81
2024/01/17 05:02:13;;;;;;;2.30;0.20;;;;;;;-5.71;75.48;99513.38;5002778;28;20774;-80
2024/01/17 05:04:40;;;;;;;2.03;0.40;;;;;;;-5.64;75.78;99489.75;5008435;28;20473;-81
2024/01/17 05:07:08;;;;;;;0.60;0.10;;;;;;;-5.58;75.64;99502.63;5000014;28;20051;-81
2024/01/17 05:09:35;;;;;;;3.00;0.10;;;;;;;-5.51;75.69;99496.84;5002793;28;20085;-80
2024/01/17 05:12:02;;;;;;;1.17;0.30;;;;;;;-5.47;75.82;99495.19;5005007;28;20113;-81
2024/01/17 05:14:29;;;;;;;0.60;0.10;;;;;;;-5.39;76.14;99506.41;5007391;28;20466;-81
2024/01/17 05:16:58;;;;;;;2.70;0.30;;;;;;;-5.32;76.33;99500.63;5000493;28;20050;-81
2024/01/17 05:19:25;;;;;;;8.18;0.28;;;;;;;-5.26;76.54;99493.13;5002887;28;20129;-81
2024/01/17 05:21:51;;;;;;;0.93;0.30;;;;;;;-5.19;76.30;99496.63;5004437;28;20532;-81
2024/01/17 05:24:18;;;;;;;2.58;0.60;;;;;;;-5.14;76.62;99487.41;5001570;28;20129;-80
2024/01/17 05:26:46;;;;;;;0.73;0.22;;;;;;;-5.07;76.71;99485.00;5005306;28;20057;-81
2024/01/17 05:29:13;;;;;;;2.75;0.20;;;;;;;-5.00;76.32;99485.97;4998411;28;20062;-74
2024/01/17 05:31:40;;;;;;;1.50;0.40;;;;;;;-4.96;76.88;99480.09;5001318;28;20100;-73
2024/01/17 05:34:08;;;;;;;3.88;0.50;;;;;;;-4.91;76.66;99481.03;5002391;28;20088;-73
2024/01/17 05:36:37;;;;;;;4.30;0.30;;;;;;;-4.86;76.66;99479.44;5000618;28;20161;-73
2024/01/17 05:39:04;;;;;;;4.07;0.30;;;;;;;-4.80;76.76;99472.75;5001675;28;20099;-70
2024/01/17 05:41:31;;;;;;;1.15;0.20;;;;;;;-4.75;76.56;99466.88;4998556;28;20041;-69
2024/01/17 05:43:58;;;;;;;4.25;0.20;;;;;;;-4.68;76.41;99461.03;5000262;28;20057;-70
2024/01/17 05:46:25;;;;;;;3.20;0.30;;;;;;;-4.64;76.89;99454.31;5001012;28;20081;-70
2024/01/17 05:48:52;;;;;;;6.53;0.50;;;;;;;-4.58;76.78;99456.97;5000420;28;20112;-71
2024/01/17 05:51:20;;;;;;;3.47;0.30;;;;;;;-4.54;76.90;99450.22;4993266;28;20120;-70
2024/01/17 05:53:47;;;;;;;5.88;0.32;;;;;;;-4.49;77.02;99462.22;5001120;28;20128;-70
2024/01/17 05:56:14;;;;;;;1.08;0.28;;;;;;;-4.44;77.09;99452.97;5000038;28;20129;-72
2024/01/17 05:58:41;;;;;;;3.95;0.90;;;;;;;-4.38;77.05;99441.13;4995019;28;21059;-72
2024/01/17 06:01:08;;;;;;;1.95;0.30;;;;;;;-4.32;76.83;99436.13;4999135;28;20153;-70
2024/01/17 06:03:35;;;;;;;2.80;0.38;;;;;;;-4.29;77.08;99425.94;5001108;28;20448;-70
2024/01/17 06:06:02;;;;;;;2.63;0.20;;;;;;;-4.24;76.69;99426.91;4995805;28;20140;-70
2024/01/17 06:08:30;;;;;;;2.50;1.00;;;;;;;-4.20;76.92;99423.53;5000490;28;20567;-70
2024/01/17 06:10:57;;;;;;;1.05;0.30;;;;;;;-4.16;76.67;99425.28;5001379;28;20073;-69
2024/01/17 06:13:24;;;;;;;3.53;0.70;;;;;;;-4.12;76.60;99413.44;4996870;28;20129;-69
2024/01/17 06:15:51;;;;;;;0.98;0.20;;;;;;;-4.09;76.59;99416.88;4997319;28;20132;-69
2024/01/17 06:18:18;;;;;;;2.50;0.60;;;;;;;-4.04;76.53;99409.31;4997107;28;20165;-69
2024/01/17 06:20:46;;;;;;;2.25;0.30;;;;;;;-4.00;76.94;99405.94;5004270;28;20754;-69
2024/01/17 06:23:13;;;;;;;1.45;0.30;;;;;;;-3.96;76.87;99402.56;4999039;28;20073;-69
2024/01/17 06:25:42;;;;;;;0.90;0.60;;;;;;;-3.93;76.86;99400.09;5001221;28;20124;-70
2024/01/17 06:28:08;;;;;;;3.80;0.47;;;;;;;-3.89;76.40;99395.88;4998991;28;20128;-69
2024/01/17 06:30:35;;;;;;;1.27;0.35;;;;;;;-3.85;76.52;99401.03;4999386;28;20156;-69
2024/01/17 06:33:02;;;;;;;3.38;0.52;;;;;;;-3.81;76.63;99395.13;4996491;28;20125;-69
2024/01/17 06:35:29;;;;;;;2.83;0.30;;;;;;;-3.78;76.50;99379.84;4998224;28;20050;-70
2024/01/17 06:37:56;;;;;;;2.13;0.32;;;;;;;-3.73;76.92;99388.44;4999362;28;20129;-70
2024/01/17 06:40:23;;;;;;;2.85;0.30;;;;;;;-3.69;76.70;99384.22;4973244;28;20073;-72
2024/01/17 06:42:52;;;;;;;4.75;0.50;;;;;;;-3.65;76.74;99375.72;4999474;28;20124;-72
2024/01/17 06:45:18;;;;;;;0.70;0.40;;;;;;;-3.62;76.82;99375.78;4996571;28;20085;-72
2024/01/17 06:47:47;;;;;;;6.28;0.60;;;;;;;-3.59;76.90;99373.28;4997928;28;20069;-71
2024/01/17 06:50:15;;;;;;;1.65;0.30;;;;;;;-3.56;76.79;99364.75;4997289;28;20488;-70
2024/01/17 06:52:42;;;;;;;2.45;0.50;;;;;;;-3.52;76.89;99371.63;5000106;28;20072;-70
2024/01/17 06:55:09;;;;;;;5.13;0.98;;;;;;;-3.48;77.31;99365.69;4997205;28;20761;-70
2024/01/17 06:57:36;;;;;;;6.45;0.55;;;;;;;-3.45;76.58;99357.22;5002449;28;20051;-70
2024/01/17 07:00:06;;;;;;;2.40;0.50;;;;;;;-3.41;76.82;99351.31;4997742;28;20548;-70
2024/01/17 07:02:33;;;;;;;5.05;0.35;;;;;;;-3.39;77.04;99349.59;4997831;28;20054;-72
2024/01/17 07:05:00;;;;;;;4.60;0.40;;;;;;;-3.35;76.79;99344.53;4995604;28;20058;-70
2024/01/17 07:07:27;;;;;;;6.63;0.80;;;;;;;-3.33;76.73;99336.91;4998643;28;20141;-70
2024/01/17 07:09:54;;;;;;;2.35;0.40;;;;;;;-3.28;76.78;99332.66;5000736;28;20117;-70
2024/01/17 07:12:21;;;;;;;4.03;0.65;;;;;;;-3.24;76.91;99331.03;4996687;28;20524;-71
2024/01/17 07:14:49;;;;;;;3.03;0.50;;;;;;;-3.21;76.97;99323.38;4994543;28;20056;-70
2024/01/17 07:17:17;;;;;;;6.47;0.95;;;;;;;-3.18;76.86;99326.81;4997733;28;20519;-70
2024/01/17 07:19:44;;;;;;;6.68;0.90;;;;;;;-3.15;77.31;99316.59;4996835;28;20134;-70
2024/01/17 07:22:13;;;;;;;2.75;0.30;;;;;;;-3.12;76.94;99320.91;4996165;28;20511;-70
2024/01/17 07:24:40;;;;;;;6.82;0.75;;;;;;;-3.08;77.23;99320.06;4996773;28;20046;-70
2024/01/17 07:27:07;;;;;;;6.18;0.73;;;;;;;-3.07;77.19;99317.53;4998185;28;20054;-70
2024/01/17 07:29:35;;;;;;;5.95;0.52;;;;;;;-3.07;77.65;99304.75;4998931;28;20399;-70
2024/01/17 07:32:02;;;;;;;4.65;0.40;;;;;;;-3.00;77.76;99304.78;4998038;28;20097;-71
2024/01/17 07:34:30;;;;;;;4.55;0.73;;;;;;;-2.98;77.60;99311.63;4994279;28;20046;-71
2024/01/17 07:36:57;;;;;;;5.53;0.40;;;;;;;-2.94;77.51;99299.72;4996757;28;20046;-70
2024/01/17 07:39:24;;;;;;;3.53;0.68;;;;;;;-2.93;77.61;99294.63;4997465;28;20612;-70
2024/01/17 07:41:51;;;;;;;0.68;0.40;;;;;;;-2.90;77.29;99288.69;4998388;28;20132;-70
2024/01/17 07:44:18;;;;;;;7.78;0.50;;;;;;;-2.87;77.59;99281.88;4997692;28;20051;-70
2024/01/17 07:46:47;;;;;;;4.47;1.40;;;;;;;-2.85;76.97;99280.19;4999046;28;20145;-70
2024/01/17 07:49:14;;;;;;;6.35;0.77;;;;;;;-2.82;77.70;99279.38;4998077;28;20109;-83
2024/01/17 07:51:42;;;;;;;2.50;0.25;;;;;;;-2.79;76.85;99274.25;5006465;28;20074;-81
2024/01/17 07:54:09;;;;;;;2.05;0.50;;;;;;;-2.79;77.27;99256.34;5011062;28;20074;-82
2024/01/17 07:56:36;;;;;;;6.15;1.08;;;;;;;-2.78;76.96;99250.38;5006474;28;20078;-82
2024/01/17 07:59:03;;;;;;;4.45;0.82;;;;;;;-2.71;76.96;99264.91;5001252;28;20142;-70
2024/01/17 08:01:30;;;;;;;1.90;0.30;;;;;;;-2.69;77.26;99250.41;5000679;28;20074;-71
2024/01/17 08:03:57;;;;;;;2.90;0.43;;;;;;;-2.67;77.04;99247.88;4995450;28;20125;-71
2024/01/17 08:06:24;;;;;;;3.72;0.30;;;;;;;-2.65;77.57;99236.81;4998721;28;20687;-71
2024/01/17 08:08:52;;;;;;;1.98;0.52;;;;;;;-2.63;77.82;99244.47;4999077;28;20137;-70
2024/01/17 08:11:19;;;;;;;2.72;0.60;;;;;;;-2.61;77.22;99224.88;5001899;28;20038;-71
2024/01/17 08:13:46;;;;;;;5.78;0.60;;;;;;;-2.60;77.08;99219.75;4996053;28;20046;-70
2024/01/17 08:16:13;;;;;;;1.90;0.50;;;;;;;-2.56;77.95;99235.16;4999483;28;20101;-70
2024/01/17 08:18:40;;;;;;;3.35;0.45;;;;;;;-2.55;78.35;99211.25;4988986;28;20069;-72
2024/01/17 08:21:07;;;;;;;2.33;0.30;;;;;;;-2.53;78.01;99210.41;4996886;28;20129;-71
2024/01/17 08:23:36;;;;;;;5.07;0.95;;;;;;;-2.51;77.99;99202.72;5000458;28;20084;-71
2024/01/17 08:26:04;;;;;;;2.22;0.35;;;;;;;-2.49;77.50;99190.78;4995153;28;20054;-70
2024/01/17 08:28:31;;;;;;;1.65;0.77;;;;;;;-2.47;78.05;99186.53;5003475;28;20100;-71
2024/01/17 08:30:59;;;;;;;0.65;0.20;;;;;;;-2.44;78.11;99173.75;5000960;28;20129;-71
2024/01/17 08:33:26;;;;;;;1.35;0.45;;;;;;;-2.41;77.91;99172.03;5000706;28;20050;-71
2024/01/17 08:35:53;;;;;;;0.82;0.55;;;;;;;-2.40;77.93;99160.94;5000798;28;20137;-70
2024/01/17 08:38:20;;;;;;;2.30;0.60;;;;;;;-2.37;78.24;99173.78;4995212;28;20081;-70
2024/01/17 08:40:47;;;;;;;4.35;1.05;;;;;;;-2.33;77.97;99164.41;4992477;28;20129;-70
2024/01/17 08:43:15;;;;;;;5.40;0.85;;;;;;;-2.31;78.33;99165.28;4995246;28;20125;-71
2024/01/17 08:45:42;;;;;;;1.08;0.55;;;;;;;-2.29;78.76;99160.97;4995095;28;20561;-70
2024/01/17 08:48:09;;;;;;;7.20;0.60;;;;;;;-2.27;78.26;99154.16;5002562;28;20078;-71
2024/01/17 08:50:36;;;;;;;4.80;0.70;;;;;;;-2.24;78.50;99148.19;4999797;28;20486;-71
2024/01/17 08:53:03;;;;;;;4.05;0.57;;;;;;;-2.23;77.76;99143.06;5002490;28;20089;-71
2024/01/17 08:55:30;;;;;;;0.77;0.40;;;;;;;-2.20;78.32;99143.06;4999541;28;20490;-70
2024/01/17 08:57:57;;;;;;;3.45;0.93;;;;;;;-2.17;78.48;99135.44;5002413;28;20057;-70
2024/01/17 09:00:25;;;;;;;5.53;0.70;;;;;;;-2.16;78.05;99134.56;5005473;28;20077;-83
2024/01/17 09:02:52;;;;;;;4.55;0.90;;;;;;;-2.13;78.42;99132.00;5004732;28;20127;-83
2024/01/17 09:05:20;;;;;;;5.45;1.15;;;;;;;-2.09;78.81;99121.75;5013840;28;20133;-82
2024/01/17 09:07:49;;;;;;;7.93;1.00;;;;;;;-2.12;78.75;99112.34;5013829;28;20069;-82
2024/01/17 09:10:17;;;;;;;2.72;0.45;;;;;;;-2.06;77.88;99125.16;5004713;28;20054;-71
2024/01/17 09:12:44;;;;;;;8.25;0.50;;;;;;;-2.03;78.08;99134.56;5000280;28;20049;-71
2024/01/17 09:15:12;;;;;;;3.80;0.75;;;;;;;-2.00;78.86;99119.19;4999045;28;20066;-71
2024/01/17 09:17:40;;;;;;;5.30;0.75;;;;;;;-1.98;78.95;99122.63;5002434;28;20041;-71
2024/01/17 09:20:08;;;;;;;3.17;1.00;;;;;;;-1.95;77.97;99104.69;5003160;28;20108;-71
2024/01/17 09:22:35;;;;;;;4.43;0.40;;;;;;;-1.93;78.60;99113.25;5002185;28;20125;-71
2024/01/17 09:25:02;;;;;;;1.38;0.60;;;;;;;-1.92;77.77;99108.09;5001299;28;20085;-72
2024/01/17 09:27:29;;;;;;;4.03;1.25;;;;;;;-1.87;78.65;99109.84;5000980;28;20082;-71
2024/01/17 09:29:56;;;;;;;6.38;0.90;;;;;;;-1.88;78.98;99114.13;4999315;28;20674;-71
2024/01/17 09:32:23;;;;;;;4.05;0.52;;;;;;;-1.82;78.30;99111.56;4997462;28;20109;-73
2024/01/17 09:34:52;;;;;;;5.18;1.13;;;;;;;-1.78;78.62;99104.72;4997509;28;20042;-72
2024/01/17 09:37:19;;;;;;;7.88;1.15;;;;;;;-1.75;78.05;99100.44;4999658;28;20046;-72
2024/01/17 09:39:46;;;;;;;3.30;0.90;;;;;;;-1.72;78.75;99092.72;4998293;28;20137;-70
2024/01/17 09:42:15;;;;;;;0.68;0.47;;;;;;;-1.70;78.50;99098.72;4996378;28;20050;-71
2024/01/17 09:44:42;;;;;;;3.40;1.17;;;;;;;-1.67;78.13;99081.63;4998786;28;20485;-70
2024/01/17 09:47:12;;;;;;;6.78;1.33;;;;;;;-1.63;78.62;99078.22;5001801;28;20049;-70
2024/01/17 09:49:39;;;;;;;9.23;1.25;;;;;;;-1.62;78.43;99070.53;5002219;28;20129;-70
2024/01/17 09:52:13;;;;;;;7.10;0.90;;;;;;;-1.59;78.12;99073.09;5000706;28;20038;-73
2024/01/17 09:54:43;;;;;;;4.07;0.85;;;;;;;-1.57;78.43;99062.81;4998593;28;20651;-72
2024/01/17 09:57:18;;;;;;;6.55;1.05;;;;;;;-1.54;77.49;99067.94;4999831;28;20084;-73
2024/01/17 09:59:47;;;;;;;5.32;1.00;;;;;;;-1.51;77.84;99065.41;5003342;28;20050;-73
2024/01/17 10:02:16;;;;;;;8.75;1.33;;;;;;;-1.49;78.42;99061.09;4997860;28;20116;-73
2024/01/17 10:04:43;;;;;;;3.38;0.85;;;;;;;-1.47;77.81;99060.25;4999554;28;20037;-72
2024/01/17 10:07:12;;;;;;;2.97;1.20;;;;;;;-1.45;77.98;99067.94;4996890;28;20042;-73
2024/01/17 10:09:39;;;;;;;4.72;1.05;;;;;;;-1.42;77.30;99057.69;5000367;28;20053;-73
2024/01/17 10:12:07;;;;;;;3.28;0.68;;;;;;;-1.39;77.50;99056.81;4997602;28;20069;-76
2024/01/17 10:14:34;;;;;;;5.55;1.45;;;;;;;-1.37;78.00;99043.13;5000159;28;20077;-73
2024/01/17 10:17:01;;;;;;;2.72;1.35;;;;;;;-1.33;77.36;99039.69;4999591;28;20125;-73
2024/01/17 10:19:29;;;;;;;3.83;0.75;;;;;;;-1.32;77.95;99043.94;4998193;28;20046;-74
2024/01/17 10:21:56;;;;;;;5.63;1.25;;;;;;;-1.29;77.65;99027.69;5001980;28;20054;-74
2024/01/17 10:24:26;;;;;;;3.60;1.08;;;;;;;-1.31;77.30;99035.41;5001716;28;20038;-74
2024/01/17 10:26:53;;;;;;;5.88;1.05;;;;;;;-1.24;77.33;99021.69;5001841;28;20137;-74
2024/01/17 10:29:20;;;;;;;4.78;1.55;;;;;;;-1.21;77.37;99020.00;4998754;28;20077;-74
2024/01/17 10:31:47;;;;;;;5.75;0.95;;;;;;;-1.19;77.19;99015.72;4996456;28;20104;-74
2024/01/17 10:34:14;;;;;;;1.67;1.17;;;;;;;-1.16;77.42;99010.56;4996926;28;20077;-72
2024/01/17 10:36:44;;;;;;;1.75;0.70;;;;;;;-1.15;77.58;98994.31;4995055;28;20084;-72
2024/01/17 10:39:11;;;;;;;4.55;1.25;;;;;;;-1.13;76.15;98982.34;4997262;28;20058;-72
2024/01/17 10:41:50;;;;;;;5.90;1.15;;;;;;;-1.12;76.81;98978.88;4998087;28;20050;-72
2024/01/17 10:44:19;;;;;;;7.47;1.27;;;;;;;-1.09;76.60;98984.00;4999013;28;20049;-72
2024/01/17 10:46:48;;;;;;;2.13;0.43;;;;;;;-1.08;76.46;98971.19;4997525;28;20528;-72
2024/01/17 10:49:15;;;;;;;8.70;1.35;;;;;;;-1.06;76.73;98976.28;4998516;28;20200;-72
2024/01/17 10:51:50;;;;;;;5.65;1.45;;;;;;;-1.04;76.16;98954.06;4999219;28;20077;-72
2024/01/17 10:54:21;;;;;;;7.07;1.60;;;;;;;-1.03;76.37;98943.78;4997420;28;20088;-72
2024/01/17 10:56:55;;;;;;;5.50;1.40;;;;;;;-1.06;76.77;98932.66;5000582;28;20097;-72
2024/01/17 10:59:23;;;;;;;7.43;1.38;;;;;;;-0.99;76.68;98938.63;4996245;28;20070;-72
2024/01/17 11:01:51;;;;;;;3.97;1.15;;;;;;;-0.98;76.99;98946.31;4994694;28;20124;-73
2024/01/17 11:04:24;;;;;;;4.13;1.35;;;;;;;-0.97;76.52;98924.94;4997920;28;20052;-74
2024/01/17 11:06:53;;;;;;;4.80;1.08;;;;;;;-0.96;76.78;98949.72;4998692;28;20049;-76
2024/01/17 11:09:23;;;;;;;7.13;1.70;;;;;;;-0.94;76.28;98950.59;5000257;28;20520;-73
2024/01/17 11:11:52;;;;;;;2.45;0.63;;;;;;;-0.93;76.98;98938.59;4998268;28;20050;-74
2024/01/17 11:14:21;;;;;;;7.38;0.88;;;;;;;-0.93;76.69;98938.59;4999892;28;20129;-72
2024/01/17 11:16:50;;;;;;;6.53;1.05;;;;;;;-0.97;77.91;98922.38;4994336;28;20832;-73
2024/01/17 11:19:17;;;;;;;2.72;0.40;;;;;;;-0.93;77.41;98907.78;4998994;28;20046;-76
2024/01/17 11:21:44;;;;;;;3.72;1.08;;;;;;;-0.94;77.88;98899.25;5006616;28;20124;-77
2024/01/17 11:24:19;;;;;;;0.60;0.40;;;;;;;-0.94;77.80;98876.13;5005213;28;20060;-79
2024/01/17 11:26:53;;;;;;;4.38;0.55;;;;;;;-0.92;77.26;98873.53;5001116;28;20065;-76
2024/01/17 11:29:29;;;;;;;3.55;0.65;;;;;;;-0.91;77.55;98863.28;4998626;28;20085;-74
2024/01/17 11:32:04;;;;;;;2.47;0.80;;;;;;;-0.90;77.33;98852.13;4999866;28;20552;-74
2024/01/17 11:34:31;;;;;;;2.92;0.80;;;;;;;-0.88;77.13;98864.97;4996807;28;20084;-73